createdAt,value
2023-08-07T00:01:57.346Z,13.60
2023-08-07T00:04:48.057Z,13.65
2023-08-07T00:07:38.710Z,13.69
2023-08-07T00:10:32.274Z,13.73
2023-08-07T00:13:22.877Z,13.79
2023-08-07T00:16:16.480Z,13.84
2023-08-07T00:19:07.029Z,13.85
2023-08-07T00:21:58.124Z,13.85
2023-08-07T00:24:49.040Z,13.84
2023-08-07T00:27:39.596Z,13.83
2023-08-07T00:30:39.926Z,13.78
2023-08-07T00:33:33.477Z,13.75
2023-08-07T00:36:30.170Z,13.70
2023-08-07T00:39:21.116Z,13.64
2023-08-07T00:42:15.597Z,13.57
2023-08-07T00:45:08.213Z,13.51
2023-08-07T00:48:01.168Z,13.45
2023-08-07T00:51:00.301Z,13.37
2023-08-07T00:53:55.311Z,13.30
2023-08-07T00:56:47.704Z,13.26
2023-08-07T00:59:38.418Z,13.23
2023-08-07T01:02:29.153Z,13.19
2023-08-07T01:05:21.008Z,13.16
2023-08-07T01:08:14.234Z,13.11
2023-08-07T01:11:12.192Z,13.06
2023-08-07T01:14:14.052Z,13.03
2023-08-07T01:17:08.667Z,13.01
2023-08-07T01:20:02.428Z,12.98
2023-08-07T01:22:56.227Z,12.94
2023-08-07T01:25:49.270Z,12.90
2023-08-07T01:28:44.777Z,12.85
2023-08-07T01:31:47.661Z,12.82
2023-08-07T01:34:39.386Z,12.82
2023-08-07T01:37:33.465Z,12.82
2023-08-07T01:40:24.537Z,12.83
2023-08-07T01:43:17.315Z,12.81
2023-08-07T01:46:10.993Z,12.80
2023-08-07T01:49:07.839Z,12.81
2023-08-07T01:51:58.473Z,12.81
2023-08-07T01:54:54.432Z,12.79
2023-08-07T01:57:44.984Z,12.75
2023-08-07T02:00:35.615Z,12.70
2023-08-07T02:03:26.239Z,12.67
2023-08-07T02:06:22.363Z,12.61
2023-08-07T02:09:12.895Z,12.55
2023-08-07T02:12:06.994Z,12.51
2023-08-07T02:15:18.004Z,12.46
2023-08-07T02:18:08.637Z,12.41
2023-08-07T02:20:59.375Z,12.34
2023-08-07T02:23:59.984Z,12.28
2023-08-07T02:26:53.774Z,12.23
2023-08-07T02:29:47.170Z,12.18
2023-08-07T02:32:57.976Z,12.14
2023-08-07T02:35:52.364Z,12.10
2023-08-07T02:38:42.950Z,12.05
2023-08-07T02:41:53.840Z,12.01
2023-08-07T02:44:44.355Z,11.96
2023-08-07T02:47:37.501Z,11.92
2023-08-07T02:50:30.917Z,11.88
2023-08-07T02:53:21.190Z,11.83
2023-08-07T02:56:11.913Z,11.80
2023-08-07T02:59:03.072Z,11.79
2023-08-07T03:01:56.116Z,11.77
2023-08-07T03:04:52.556Z,11.76
2023-08-07T03:07:43.357Z,11.77
2023-08-07T03:10:33.923Z,11.75
2023-08-07T03:13:25.286Z,11.74
2023-08-07T03:16:18.437Z,11.75
2023-08-07T03:19:11.279Z,11.76
2023-08-07T03:22:01.880Z,11.77
2023-08-07T03:25:03.925Z,11.78
2023-08-07T03:27:56.999Z,11.78
2023-08-07T03:30:47.568Z,11.79
2023-08-07T03:33:38.737Z,11.80
2023-08-07T03:36:32.347Z,11.79
2023-08-07T03:39:22.985Z,11.76
2023-08-07T03:42:23.232Z,11.70
2023-08-07T03:45:19.469Z,11.65
2023-08-07T03:48:10.029Z,11.63
2023-08-07T03:51:09.865Z,11.62
2023-08-07T03:54:04.683Z,11.60
2023-08-07T03:57:06.665Z,11.59
2023-08-07T04:00:02.223Z,11.60
2023-08-07T04:03:05.403Z,11.61
2023-08-07T04:06:18.348Z,11.59
2023-08-07T04:09:12.339Z,11.56
2023-08-07T04:12:03.532Z,11.56
2023-08-07T04:15:14.232Z,11.58
2023-08-07T04:18:07.531Z,11.60
2023-08-07T04:21:00.418Z,11.63
2023-08-07T04:24:02.409Z,11.66
2023-08-07T04:26:52.876Z,11.67
2023-08-07T04:29:43.560Z,11.70
2023-08-07T04:32:45.242Z,11.75
2023-08-07T04:35:56.012Z,11.80
2023-08-07T04:38:47.036Z,11.86
2023-08-07T04:41:40.610Z,11.92
2023-08-07T04:44:31.119Z,11.98
2023-08-07T04:47:21.859Z,12.06
2023-08-07T04:50:15.112Z,12.11
2023-08-07T04:53:06.874Z,12.17
2023-08-07T04:55:57.630Z,12.20
2023-08-07T04:59:00.088Z,12.23
2023-08-07T05:01:50.680Z,12.27
2023-08-07T05:05:01.563Z,12.28
2023-08-07T05:07:52.447Z,12.30
2023-08-07T05:10:43.034Z,12.28
2023-08-07T05:13:33.547Z,12.26
2023-08-07T05:16:26.471Z,12.25
2023-08-07T05:19:27.339Z,12.23
2023-08-07T05:22:17.776Z,12.24
2023-08-07T05:25:12.692Z,12.25
2023-08-07T05:28:04.018Z,12.29
2023-08-07T05:30:54.820Z,12.34
2023-08-07T05:33:45.392Z,12.40
2023-08-07T05:36:36.235Z,12.46
2023-08-07T05:39:27.049Z,12.54
2023-08-07T05:42:27.929Z,12.60
2023-08-07T05:45:21.142Z,12.65
2023-08-07T05:48:11.765Z,12.69
2023-08-07T05:51:05.126Z,12.72
2023-08-07T05:53:55.959Z,12.74
2023-08-07T05:56:46.772Z,12.79
2023-08-07T05:59:37.871Z,12.84
2023-08-07T06:02:29.103Z,12.89
2023-08-07T06:05:19.387Z,12.92
2023-08-07T06:08:09.998Z,12.96
2023-08-07T06:11:02.566Z,13.02
2023-08-07T06:13:53.091Z,13.10
2023-08-07T06:16:43.718Z,13.16
2023-08-07T06:19:34.407Z,13.21
2023-08-07T06:22:25.169Z,13.26
2023-08-07T06:25:15.859Z,13.32
2023-08-07T06:28:06.736Z,13.42
2023-08-07T06:31:02.317Z,13.53
2023-08-07T06:33:53.759Z,13.63
2023-08-07T06:36:43.894Z,13.70
2023-08-07T06:39:37.013Z,13.75
2023-08-07T06:42:27.593Z,13.79
2023-08-07T06:45:21.199Z,13.85
2023-08-07T06:48:11.839Z,13.93
2023-08-07T06:51:04.820Z,13.99
2023-08-07T06:53:55.392Z,14.03
2023-08-07T06:56:52.191Z,14.06
2023-08-07T06:59:42.770Z,14.10
2023-08-07T07:02:33.599Z,14.10
2023-08-07T07:05:27.260Z,14.10
2023-08-07T07:08:17.855Z,14.11
2023-08-07T07:11:10.658Z,14.18
2023-08-07T07:14:02.622Z,14.26
2023-08-07T07:16:53.158Z,14.34
2023-08-07T07:19:43.748Z,14.44
2023-08-07T07:22:34.522Z,14.54
2023-08-07T07:25:25.101Z,14.65
2023-08-07T07:28:15.580Z,14.75
2023-08-07T07:31:06.405Z,14.84
2023-08-07T07:33:57.010Z,14.93
2023-08-07T07:36:47.776Z,15.00
2023-08-07T07:39:40.114Z,15.10
2023-08-07T07:42:30.632Z,15.18
2023-08-07T07:45:21.104Z,15.32
2023-08-07T07:48:11.595Z,15.46
2023-08-07T07:51:03.368Z,15.55
2023-08-07T07:54:13.150Z,15.64
2023-08-07T07:57:04.513Z,15.88
2023-08-07T07:59:55.016Z,16.22
2023-08-07T08:02:45.445Z,16.46
2023-08-07T08:05:36.383Z,16.68
2023-08-07T08:08:28.813Z,16.85
2023-08-07T08:11:22.005Z,16.97
2023-08-07T08:14:14.625Z,17.37
2023-08-07T08:17:05.181Z,17.89
2023-08-07T08:19:55.590Z,18.30
2023-08-07T08:22:46.398Z,18.53
2023-08-07T08:25:38.588Z,18.76
2023-08-07T08:28:29.268Z,19.14
2023-08-07T08:31:21.949Z,19.31
2023-08-07T08:34:12.427Z,19.39
2023-08-07T08:37:03.025Z,19.53
2023-08-07T08:39:53.510Z,19.72
2023-08-07T08:42:44.126Z,19.98
2023-08-07T08:45:35.274Z,19.88
2023-08-07T08:48:26.130Z,19.64
2023-08-07T08:51:18.893Z,19.48
2023-08-07T08:54:10.517Z,19.47
2023-08-07T08:57:01.865Z,19.55
2023-08-07T08:59:52.412Z,19.62
2023-08-07T09:02:43.021Z,19.65
2023-08-07T09:05:33.779Z,19.70
2023-08-07T09:08:25.429Z,19.66
2023-08-07T09:11:16.189Z,19.60
2023-08-07T09:14:06.804Z,19.56
2023-08-07T09:16:57.564Z,19.65
2023-08-07T09:19:48.349Z,19.78
2023-08-07T09:22:38.756Z,19.80
2023-08-07T09:25:32.791Z,19.68
2023-08-07T09:28:23.112Z,19.62
2023-08-07T09:31:18.987Z,19.63
2023-08-07T09:34:11.344Z,19.56
2023-08-07T09:37:01.838Z,19.46
2023-08-07T09:39:53.526Z,19.40
2023-08-07T09:42:44.318Z,19.51
2023-08-07T09:45:37.892Z,19.69
2023-08-07T09:48:29.200Z,19.93
2023-08-07T09:51:19.599Z,20.14
2023-08-07T09:54:09.998Z,20.23
2023-08-07T09:57:01.217Z,20.34
2023-08-07T09:59:53.508Z,20.36
2023-08-07T10:02:44.578Z,20.35
2023-08-07T10:05:35.254Z,20.47
2023-08-07T10:08:25.852Z,20.77
2023-08-07T10:11:19.320Z,21.07
2023-08-07T10:14:11.883Z,21.16
2023-08-07T10:17:02.393Z,21.23
2023-08-07T10:19:53.443Z,21.31
2023-08-07T10:22:44.948Z,21.47
2023-08-07T10:25:36.518Z,21.79
2023-08-07T10:28:30.011Z,22.01
2023-08-07T10:31:24.837Z,22.25
2023-08-07T10:34:15.236Z,22.44
2023-08-07T10:37:08.515Z,22.75
2023-08-07T10:40:06.054Z,23.07
2023-08-07T10:42:59.926Z,22.77
2023-08-07T10:45:50.005Z,22.16
2023-08-07T10:48:44.559Z,21.42
2023-08-07T10:51:34.808Z,20.81
2023-08-07T10:54:25.815Z,20.26
2023-08-07T10:57:17.101Z,19.84
2023-08-07T11:00:10.259Z,19.49
2023-08-07T11:03:03.221Z,19.19
2023-08-07T11:05:53.889Z,18.91
2023-08-07T11:08:44.736Z,18.74
2023-08-07T11:11:41.655Z,18.61
2023-08-07T11:14:32.346Z,18.46
2023-08-07T11:17:22.817Z,18.36
2023-08-07T11:20:13.799Z,18.30
2023-08-07T11:23:04.189Z,18.30
2023-08-07T11:25:54.690Z,18.41
2023-08-07T11:28:45.345Z,18.55
2023-08-07T11:31:35.998Z,18.73
2023-08-07T11:34:26.757Z,18.98
2023-08-07T11:37:19.282Z,19.13
2023-08-07T11:40:12.980Z,19.11
2023-08-07T11:43:03.218Z,19.10
2023-08-07T11:45:53.885Z,19.02
2023-08-07T11:48:45.433Z,18.92
2023-08-07T11:51:36.227Z,18.85
2023-08-07T11:54:27.380Z,18.82
2023-08-07T11:57:22.255Z,19.00
2023-08-07T12:00:14.682Z,19.44
2023-08-07T12:03:05.262Z,19.77
2023-08-07T12:05:55.905Z,20.09
2023-08-07T12:08:46.371Z,20.51
2023-08-07T12:11:37.736Z,21.42
2023-08-07T12:14:32.292Z,22.88
2023-08-07T12:17:23.618Z,23.33
2023-08-07T12:20:14.041Z,23.37
2023-08-07T12:23:04.603Z,23.26
2023-08-07T12:25:55.418Z,23.10
2023-08-07T12:28:45.982Z,23.14
2023-08-07T12:31:38.810Z,23.56
2023-08-07T12:37:24.320Z,23.88
2023-08-07T12:43:10.797Z,24.16
2023-08-07T12:48:55.321Z,24.34
2023-08-07T12:51:45.846Z,24.07
2023-08-07T12:54:36.736Z,23.81
2023-08-07T12:57:27.941Z,23.78
2023-08-07T13:00:19.875Z,23.68
2023-08-07T13:03:10.199Z,23.44
2023-08-07T13:06:00.717Z,23.28
2023-08-07T13:08:51.234Z,23.13
2023-08-07T13:11:41.857Z,23.46
2023-08-07T13:14:32.339Z,24.00
2023-08-07T13:17:23.008Z,24.29
2023-08-07T13:20:15.050Z,24.70
2023-08-07T13:23:07.709Z,24.98
2023-08-07T13:25:58.085Z,24.97
2023-08-07T13:28:48.566Z,24.60
2023-08-07T13:31:39.260Z,24.08
2023-08-07T13:34:29.819Z,23.61
2023-08-07T13:37:20.284Z,23.11
2023-08-07T13:40:12.892Z,22.49
2023-08-07T13:43:09.121Z,22.12
2023-08-07T13:45:59.437Z,21.89
2023-08-07T13:48:50.017Z,21.78
2023-08-07T13:51:40.630Z,21.55
2023-08-07T13:54:31.216Z,21.20
2023-08-07T13:57:21.668Z,20.95
2023-08-07T14:00:15.674Z,20.80
2023-08-07T14:03:06.170Z,20.77
2023-08-07T14:05:56.732Z,20.75
2023-08-07T14:08:47.248Z,20.75
2023-08-07T14:11:37.747Z,20.75
2023-08-07T14:14:28.413Z,20.73
2023-08-07T14:17:18.899Z,20.69
2023-08-07T14:20:11.991Z,20.60
2023-08-07T14:23:16.284Z,20.56
2023-08-07T14:26:11.641Z,20.63
2023-08-07T14:29:02.291Z,20.68
2023-08-07T14:31:52.824Z,20.65
2023-08-07T14:34:43.374Z,20.43
2023-08-07T14:37:34.093Z,20.17
2023-08-07T14:40:24.551Z,19.97
2023-08-07T14:43:14.988Z,20.16
2023-08-07T14:46:05.562Z,20.21
2023-08-07T14:48:56.098Z,20.46
2023-08-07T14:51:46.582Z,20.77
2023-08-07T14:54:37.333Z,20.96
2023-08-07T14:57:27.907Z,21.05
2023-08-07T15:00:19.842Z,20.98
2023-08-07T15:03:10.106Z,20.74
2023-08-07T15:06:00.654Z,20.50
2023-08-07T15:08:51.181Z,20.23
2023-08-07T15:11:42.107Z,19.94
2023-08-07T15:14:32.745Z,19.79
2023-08-07T15:17:23.254Z,19.69
2023-08-07T15:20:14.109Z,19.64
2023-08-07T15:23:04.735Z,19.57
2023-08-07T15:25:55.341Z,19.47
2023-08-07T15:28:46.727Z,19.45
2023-08-07T15:31:37.304Z,19.66
2023-08-07T15:34:27.848Z,19.88
2023-08-07T15:37:18.325Z,20.04
2023-08-07T15:40:10.233Z,20.12
2023-08-07T15:43:00.684Z,20.14
2023-08-07T15:45:54.342Z,20.13
2023-08-07T15:48:45.014Z,20.25
2023-08-07T15:51:35.473Z,20.52
2023-08-07T15:54:25.914Z,20.80
2023-08-07T15:57:16.460Z,20.95
2023-08-07T16:00:08.285Z,21.05
2023-08-07T16:03:11.246Z,21.14
2023-08-07T16:06:01.509Z,21.24
2023-08-07T16:08:52.115Z,21.30
2023-08-07T16:11:42.564Z,21.26
2023-08-07T16:14:35.828Z,21.21
2023-08-07T16:17:28.952Z,21.12
2023-08-07T16:20:19.230Z,21.07
2023-08-07T16:23:09.699Z,21.01
2023-08-07T16:26:00.209Z,21.01
2023-08-07T16:28:50.856Z,21.09
2023-08-07T16:31:41.649Z,21.14
2023-08-07T16:34:32.274Z,21.16
2023-08-07T16:37:22.873Z,21.18
2023-08-07T16:40:13.958Z,21.13
2023-08-07T16:43:05.008Z,20.97
2023-08-07T16:45:55.576Z,20.82
2023-08-07T16:48:47.716Z,20.71
2023-08-07T16:51:38.198Z,20.59
2023-08-07T16:54:28.814Z,20.50
2023-08-07T16:57:19.321Z,20.39
2023-08-07T17:00:11.612Z,20.27
2023-08-07T17:03:02.139Z,20.17
2023-08-07T17:05:52.704Z,20.14
2023-08-07T17:08:43.257Z,20.16
2023-08-07T17:11:33.912Z,20.15
2023-08-07T17:14:24.420Z,20.22
2023-08-07T17:17:14.988Z,20.25
2023-08-07T17:20:06.046Z,20.24
2023-08-07T17:22:56.638Z,20.23
2023-08-07T17:25:47.147Z,20.25
2023-08-07T17:28:37.895Z,20.27
2023-08-07T17:31:30.778Z,20.25
2023-08-07T17:34:22.448Z,20.21
2023-08-07T17:37:12.917Z,20.18
2023-08-07T17:40:04.787Z,20.12
2023-08-07T17:42:59.214Z,20.07
2023-08-07T17:45:49.776Z,20.05
2023-08-07T17:48:46.550Z,20.09
2023-08-07T17:51:39.753Z,20.10
2023-08-07T17:54:41.236Z,20.17
2023-08-07T17:57:31.867Z,20.29
2023-08-07T18:00:22.693Z,20.29
2023-08-07T18:03:17.643Z,20.17
2023-08-07T18:06:11.313Z,20.01
2023-08-07T18:09:02.367Z,19.91
2023-08-07T18:11:54.932Z,19.79
2023-08-07T18:14:50.229Z,19.69
2023-08-07T18:17:40.734Z,19.60
2023-08-07T18:20:31.358Z,19.52
2023-08-07T18:23:23.580Z,19.42
2023-08-07T18:26:14.123Z,19.34
2023-08-07T18:29:10.854Z,19.27
2023-08-07T18:32:03.466Z,19.21
2023-08-07T18:35:02.245Z,19.16
2023-08-07T18:37:52.749Z,19.11
2023-08-07T18:40:43.916Z,19.08
2023-08-07T18:43:40.152Z,19.07
2023-08-07T18:46:30.609Z,19.03
2023-08-07T18:49:24.032Z,18.97
2023-08-07T18:52:16.730Z,18.88
2023-08-07T18:55:08.749Z,18.80
2023-08-07T18:58:01.213Z,18.72
2023-08-07T19:00:58.977Z,18.61
2023-08-07T19:03:49.624Z,18.51
2023-08-07T19:06:40.788Z,18.45
2023-08-07T19:09:30.862Z,18.39
2023-08-07T19:12:21.372Z,18.35
2023-08-07T19:15:14.219Z,18.33
2023-08-07T19:18:05.801Z,18.31
2023-08-07T19:20:59.470Z,18.27
2023-08-07T19:23:50.035Z,18.21
2023-08-07T19:26:41.260Z,18.12
2023-08-07T19:29:33.437Z,18.01
2023-08-07T19:32:39.418Z,17.92
2023-08-07T19:35:29.985Z,17.84
2023-08-07T19:38:23.524Z,17.76
2023-08-07T19:41:18.980Z,17.68
2023-08-07T19:44:09.450Z,17.59
2023-08-07T19:47:00.752Z,17.49
2023-08-07T19:49:50.893Z,17.41
2023-08-07T19:52:41.444Z,17.33
2023-08-07T19:55:32.096Z,17.24
2023-08-07T19:58:22.604Z,17.18
2023-08-07T20:01:13.188Z,17.11
2023-08-07T20:04:03.970Z,17.03
2023-08-07T20:06:59.547Z,16.94
2023-08-07T20:09:50.425Z,16.86
2023-08-07T20:12:41.335Z,16.79
2023-08-07T20:15:31.903Z,16.71
2023-08-07T20:18:22.394Z,16.64
2023-08-07T20:21:15.735Z,16.59
2023-08-07T20:24:07.784Z,16.55
2023-08-07T20:26:58.763Z,16.49
2023-08-07T20:29:49.389Z,16.45
2023-08-07T20:32:39.948Z,16.41
2023-08-07T20:35:30.600Z,16.38
2023-08-07T20:38:21.315Z,16.34
2023-08-07T20:41:12.094Z,16.30
2023-08-07T20:44:02.579Z,16.25
2023-08-07T20:46:53.148Z,16.20
2023-08-07T20:49:43.705Z,16.16
2023-08-07T20:52:34.228Z,16.13
2023-08-07T20:55:24.885Z,16.08
2023-08-07T20:58:15.569Z,16.03
2023-08-07T21:01:06.185Z,15.98
2023-08-07T21:03:56.820Z,15.92
2023-08-07T21:06:51.759Z,15.88
2023-08-07T21:09:41.983Z,15.84
2023-08-07T21:12:32.919Z,15.79
2023-08-07T21:15:23.837Z,15.76
2023-08-07T21:18:14.438Z,15.75
2023-08-07T21:21:05.267Z,15.76
2023-08-07T21:23:55.833Z,15.77
2023-08-07T21:26:46.301Z,15.79
2023-08-07T21:29:36.737Z,15.81
2023-08-07T21:32:27.329Z,15.84
2023-08-07T21:35:18.045Z,15.85
2023-08-07T21:38:09.172Z,15.84
2023-08-07T21:41:00.756Z,15.83
2023-08-07T21:43:51.529Z,15.79
2023-08-07T21:46:44.159Z,15.74
2023-08-07T21:49:35.065Z,15.70
2023-08-07T21:52:28.294Z,15.66
2023-08-07T21:55:19.630Z,15.61
2023-08-07T21:58:10.293Z,15.56
2023-08-07T22:01:00.997Z,15.51
2023-08-07T22:03:51.641Z,15.45
2023-08-07T22:06:43.030Z,15.39
2023-08-07T22:09:33.661Z,15.34
2023-08-07T22:12:24.193Z,15.27
2023-08-07T22:15:15.588Z,15.23
2023-08-07T22:18:26.510Z,15.18
2023-08-07T22:21:17.253Z,15.13
2023-08-07T22:24:08.461Z,15.09
2023-08-07T22:26:59.037Z,15.04
2023-08-07T22:29:50.281Z,14.99
2023-08-07T22:32:40.671Z,14.95
2023-08-07T22:35:31.496Z,14.91
2023-08-07T22:38:22.855Z,14.89
2023-08-07T22:41:13.548Z,14.87
2023-08-07T22:44:04.205Z,14.84
2023-08-07T22:46:57.775Z,14.81
2023-08-07T22:49:48.506Z,14.79
2023-08-07T22:52:39.088Z,14.75
2023-08-07T22:55:29.682Z,14.73
2023-08-07T22:58:20.273Z,14.70
2023-08-07T23:01:11.097Z,14.69
2023-08-07T23:04:01.869Z,14.66
2023-08-07T23:06:52.483Z,14.63
2023-08-07T23:09:43.033Z,14.62
2023-08-07T23:12:34.061Z,14.63
2023-08-07T23:15:32.740Z,14.62
2023-08-07T23:18:24.662Z,14.62
2023-08-07T23:21:15.226Z,14.64
2023-08-07T23:24:05.995Z,14.67
2023-08-07T23:26:56.778Z,14.70
2023-08-07T23:29:47.571Z,14.74
2023-08-07T23:32:38.314Z,14.78
2023-08-07T23:35:29.050Z,14.80
2023-08-07T23:38:21.126Z,14.80
2023-08-07T23:41:11.699Z,14.81
2023-08-07T23:44:02.322Z,14.82
2023-08-07T23:46:53.009Z,14.83
2023-08-07T23:49:43.870Z,14.83
2023-08-07T23:52:34.574Z,14.83
2023-08-07T23:55:25.211Z,14.83
2023-08-07T23:58:15.820Z,14.82
